Latest Weather Observations for Portland Airport

IDV60801

Issued at 9:35 pm EST Thursday 17 April 2014 (issued every 30 minutes, with the page automatically refreshed every 10 minutes)

About weather observations | Map of weather stations | Latest weather observations for VIC | Other Formats
Station Details ID: 090171 Name: CASHMORE AIRPORT Lat: -38.31 Lon: 141.47 Height: 80.9 m
Data from the previous 72 hours. | See also: Recent months at Portland Airport
Date/Time
EST
Temp
°C
App
Temp
°C
Dew
Point
Rel
Hum
%
Delta-T
°C
Wind Press
QNH
hPa
Press
MSL
hPa
Rain
since 9 am
mm
Dir
 
Spd
km/h
Gust
km/h
Spd
kts
Gust
kts
17/09:30pm 10.3 7.9 8.7 90 0.8 N 11 13 6 7 1018.0 - 0.0
17/09:00pm 11.3 9.1 9.4 88 1.0 NNW 11 15 6 8 1018.1 1018.1 0.0
17/08:30pm 11.4 9.0 10.0 91 0.7 NW 13 15 7 8 1018.1 - 0.0
17/08:00pm 11.4 8.5 9.8 90 0.8 WNW 15 17 8 9 1018.1 - 0.0
17/07:47pm 11.4 8.5 9.8 90 0.8 WNW 15 19 8 10 1018.2 - 0.0
17/07:30pm 11.4 8.9 9.7 89 0.9 WNW 13 15 7 8 1018.3 - 0.0
17/07:05pm 12.1 9.7 10.2 88 1.0 WNW 13 15 7 8 1018.2 - 0.0
17/07:00pm 12.1 10.1 10.2 88 1.0 WNW 11 15 6 8 1018.2 - 0.0
17/06:30pm 12.2 10.1 9.8 85 1.2 WNW 11 13 6 7 1018.3 - 0.0
17/06:00pm 13.6 11.7 10.6 82 1.6 WNW 11 15 6 8 1018.4 1018.4 0.0
17/05:30pm 14.5 12.7 10.9 79 1.9 W 11 13 6 7 1018.4 - 0.0
17/05:00pm 15.5 12.6 10.9 74 2.5 W 17 22 9 12 1018.5 - 0.0
17/04:30pm 16.6 13.5 11.5 72 2.8 W 19 26 10 14 1018.5 - 0.0
17/04:00pm 16.4 12.3 11.6 73 2.6 WSW 24 32 13 17 1018.8 - 0.0
17/03:30pm 17.0 13.1 12.1 73 2.7 W 24 32 13 17 1018.8 - 0.0
17/03:00pm 17.2 12.9 12.1 72 2.8 W 26 32 14 17 1018.8 1018.8 0.0
17/02:30pm 17.3 14.3 13.8 80 2.0 W 22 30 12 16 1019.0 - 0.0
17/02:00pm 16.6 14.3 14.2 86 1.4 W 19 26 10 14 1019.2 - 0.0
17/01:30pm 17.7 15.2 14.2 80 2.0 W 20 28 11 15 1019.1 - 0.0
17/01:00pm 17.3 14.3 13.6 79 2.1 W 22 28 12 15 1019.3 - 0.0
17/12:30pm 18.4 15.5 13.9 75 2.6 WNW 22 28 12 15 1019.6 - 0.0
17/12:00pm 18.2 16.3 14.1 77 2.4 NNW 17 22 9 12 1019.8 1019.8 0.0
17/11:30am 17.9 16.7 15.0 83 1.7 NNW 15 20 8 11 1020.1 - 0.0
17/11:00am 16.7 15.2 14.3 86 1.4 NNW 15 20 8 11 1020.2 - 0.0
17/10:30am 15.5 13.7 13.3 87 1.2 NNW 15 22 8 12 1020.4 - 0.0
17/10:00am 15.4 13.8 13.9 91 0.8 NNW 15 19 8 10 1020.5 - 0.0
17/09:30am 14.8 13.7 14.3 97 0.3 N 13 19 7 10 1020.4 - 0.0
17/09:00am 12.8 11.5 12.6 99 0.1 N 11 15 6 8 1020.4 1020.4 0.4
17/08:30am 11.1 9.7 10.9 99 0.1 N 9 13 5 7 1020.3 - 0.4
17/08:00am 10.5 8.9 10.3 99 0.1 N 9 13 5 7 1020.1 - 0.4
17/07:30am 10.3 8.3 10.1 99 0.1 N 11 15 6 8 1019.8 - 0.4
17/07:00am 10.2 8.9 10.0 99 0.1 N 7 11 4 6 1019.6 - 0.4
17/06:30am 9.8 7.3 9.7 99 0.1 N 13 17 7 9 1019.5 - 0.4
17/06:00am 9.8 7.3 9.7 99 0.1 N 13 17 7 9 1019.5 1019.5 0.4
17/05:30am 9.7 7.2 9.6 99 0.1 N 13 17 7 9 1019.4 - 0.4
17/05:00am 9.4 7.2 9.3 99 0.0 N 11 15 6 8 1019.2 - 0.4
17/04:30am 9.3 7.1 9.2 99 0.0 N 11 13 6 7 1019.1 - 0.4
17/04:00am 8.6 6.2 8.5 99 0.0 N 11 13 6 7 1019.0 - 0.4
17/03:30am 8.5 6.0 8.4 99 0.0 N 11 13 6 7 1019.0 - 0.4
17/03:00am 8.6 6.2 8.5 99 0.0 N 11 13 6 7 1019.0 1019.0 0.4
17/02:30am 8.9 6.5 8.8 99 0.0 N 11 15 6 8 1019.1 - 0.2
17/02:00am 9.1 6.4 9.0 99 0.0 N 13 15 7 8 1019.4 - 0.2
17/01:30am 9.3 7.1 9.2 99 0.0 N 11 15 6 8 1019.3 - 0.2
17/01:00am 9.2 6.9 9.1 99 0.0 N 11 15 6 8 1019.3 - 0.2
17/12:30am 9.8 7.7 9.7 99 0.1 N 11 15 6 8 1019.2 - 0.2
17/12:00am 9.7 7.6 9.6 99 0.0 N 11 15 6 8 1019.4 1019.4 0.2
 
Date/Time
EST
Temp
°C
App
Temp
°C
Dew
Point
Rel
Hum
%
Delta-T
°C
Wind Press
QNH
hPa
Press
MSL
hPa
Rain
since 9 am
mm
Dir
 
Spd
km/h
Gust
km/h
Spd
kts
Gust
kts
16/11:30pm 9.6 7.7 9.1 97 0.2 N 9 13 5 7 1019.6 - 0.2
16/11:07pm 9.5 8.5 8.9 96 0.3 NNE 4 9 2 5 1019.7 - 0.2
16/11:00pm 9.8 9.3 9.2 96 0.3 NNE 2 7 1 4 1019.7 - 0.2
16/10:30pm 10.0 8.6 9.4 96 0.3 N 7 9 4 5 1019.7 - 0.2
16/10:00pm 10.5 9.2 9.9 96 0.3 N 7 9 4 5 1019.9 - 0.2
16/09:30pm 10.6 9.8 9.8 95 0.4 N 4 9 2 5 1019.8 - 0.2
16/09:00pm 10.9 11.0 10.0 94 0.5 CALM 0 0 0 0 1019.7 1019.7 0.2
16/08:30pm 10.8 10.8 9.7 93 0.6 CALM 0 0 0 0 1019.7 - 0.2
16/08:00pm 11.6 10.7 10.5 93 0.6 NW 6 7 3 4 1019.6 - 0.2
16/07:30pm 12.3 11.4 11.4 94 0.5 NW 7 9 4 5 1019.4 - 0.2
16/07:00pm 12.9 12.2 12.0 94 0.5 NW 7 11 4 6 1019.3 - 0.2
16/06:30pm 13.3 12.7 12.4 94 0.5 NW 7 11 4 6 1019.2 - 0.2
16/06:00pm 14.0 13.3 13.1 94 0.5 WNW 9 15 5 8 1019.3 1019.3 0.2
16/05:30pm 14.4 12.9 13.1 92 0.7 W 13 17 7 9 1019.3 - 0.2
16/05:00pm 14.7 13.5 12.7 88 1.1 WNW 11 15 6 8 1019.1 - 0.0
16/04:30pm 15.1 13.4 12.6 85 1.4 W 13 19 7 10 1019.2 - 0.0
16/04:00pm 15.9 14.2 12.3 79 2.0 W 13 17 7 9 1019.3 - 0.0
16/03:30pm 16.2 13.6 12.0 76 2.3 WSW 17 22 9 12 1019.3 - 0.0
16/03:00pm 16.7 14.2 12.3 75 2.4 WSW 17 22 9 12 1019.1 1019.1 0.0
16/02:30pm 16.3 13.1 11.9 75 2.4 W 20 28 11 15 1019.2 - 0.0
16/02:00pm 17.1 14.1 11.8 71 2.9 W 19 24 10 13 1019.0 - 0.0
16/01:30pm 18.0 14.8 11.8 67 3.4 W 20 26 11 14 1018.9 - 0.0
16/01:00pm 17.2 14.7 11.2 68 3.3 W 15 20 8 11 1019.0 - 0.0
16/12:30pm 16.8 13.8 11.9 73 2.7 W 19 26 10 14 1019.6 - 0.0
16/12:00pm 17.1 15.0 11.2 68 3.2 WNW 13 22 7 12 1019.8 1019.8 0.0
16/11:30am 17.5 15.9 11.5 68 3.3 N 11 15 6 8 1020.0 - 0.0
16/11:00am 16.2 15.5 13.3 83 1.6 N 9 13 5 7 1020.0 - 0.0
16/10:30am 14.8 13.9 13.7 93 0.6 N 11 15 6 8 1020.1 - 0.0
16/10:00am 13.3 12.4 12.7 96 0.3 N 9 15 5 8 1020.5 - 0.0
16/09:30am 12.5 11.5 12.3 99 0.1 NNE 9 13 5 7 1020.7 - 0.0
16/09:00am 11.6 10.0 11.4 99 0.1 NNE 11 13 6 7 1020.7 1020.7 1.0
16/08:30am 10.9 9.4 10.7 99 0.1 NNE 9 13 5 7 1020.8 - 1.0
16/08:00am 9.7 8.3 9.6 99 0.1 NNE 7 7 4 4 1020.7 - 1.0
16/07:30am 9.1 7.1 8.6 97 0.2 N 9 9 5 5 1020.7 - 0.8
16/07:00am 9.4 7.5 8.9 97 0.2 N 9 9 5 5 1020.5 - 0.8
16/06:30am 9.5 7.6 9.0 97 0.2 N 9 11 5 6 1020.4 - 0.8
16/06:00am 9.5 7.6 8.9 96 0.3 N 9 11 5 6 1020.5 1020.5 0.8
16/05:30am 9.6 7.6 8.8 95 0.4 N 9 11 5 6 1020.6 - 0.8
16/05:00am 9.8 7.9 9.0 95 0.4 N 9 11 5 6 1020.5 - 0.8
16/04:30am 9.9 8.4 9.0 94 0.4 NNE 7 11 4 6 1020.5 - 0.8
16/04:00am 10.1 8.6 9.2 94 0.4 NNE 7 9 4 5 1020.9 - 0.8
16/03:30am 10.8 9.7 9.9 94 0.5 NE 6 9 3 5 1021.0 - 0.8
16/03:00am 11.0 9.8 10.2 95 0.4 NE 7 9 4 5 1021.1 1021.1 0.8
16/02:30am 11.3 9.8 10.7 96 0.3 NE 9 13 5 7 1021.6 - 0.8
16/02:00am 11.1 9.6 10.6 97 0.3 NE 9 11 5 6 1022.3 - 0.8
16/01:30am 10.8 9.2 10.3 97 0.3 E 9 11 5 6 1022.4 - 0.8
16/01:00am 10.4 9.1 10.1 98 0.2 E 7 9 4 5 1022.4 - 0.8
16/12:30am 9.2 8.9 8.6 96 0.3 CALM 0 7 0 4 1022.5 - 0.8
16/12:00am 9.0 8.6 8.2 95 0.4 CALM 0 6 0 3 1022.6 1022.6 0.8
 
Date/Time
EST
Temp
°C
App
Temp
°C
Dew
Point
Rel
Hum
%
Delta-T
°C
Wind Press
QNH
hPa
Press
MSL
hPa
Rain
since 9 am
mm
Dir
 
Spd
km/h
Gust
km/h
Spd
kts
Gust
kts
15/11:30pm 9.0 7.3 8.2 95 0.4 E 7 7 4 4 1022.8 - 0.8
15/11:00pm 9.0 7.4 8.1 94 0.4 ESE 6 7 3 4 1023.0 - 0.8
15/10:30pm 9.0 8.5 7.9 93 0.5 CALM 0 0 0 0 1023.5 - 0.8
15/10:00pm 8.9 8.4 7.7 92 0.6 CALM 0 0 0 0 1023.7 - 0.8
15/09:30pm 9.2 8.3 7.6 90 0.8 ESE 2 6 1 3 1023.6 - 0.8
15/09:00pm 11.0 9.6 9.4 90 0.8 ESE 7 11 4 6 1023.4 1023.4 0.8
15/08:30pm 11.3 9.5 9.6 89 0.9 ESE 9 11 5 6 1023.4 - 0.8
15/08:00pm 11.4 9.6 9.3 87 1.1 ESE 9 13 5 7 1023.5 - 0.8
15/07:30pm 12.6 10.7 10.5 87 1.1 SE 11 13 6 7 1023.8 - 0.8
15/07:00pm 12.5 10.9 10.2 86 1.2 SE 9 9 5 5 1023.8 - 0.8
15/06:30pm 13.1 11.2 10.5 84 1.4 SE 11 13 6 7 1023.7 - 0.8
15/06:00pm 13.9 11.3 10.7 81 1.7 SE 15 20 8 11 1023.2 1023.2 0.8
15/05:30pm 14.8 11.9 11.0 78 2.0 SE 17 22 9 12 1023.1 - 0.8
15/05:00pm 15.5 12.7 11.5 77 2.2 SE 17 24 9 13 1023.2 - 0.8
15/04:30pm 16.2 13.0 11.4 73 2.6 SE 19 28 10 15 1023.0 - 0.8
15/04:00pm 16.3 13.1 11.2 72 2.8 SE 19 24 10 13 1023.1 - 0.8
15/03:30pm 16.3 13.2 11.5 73 2.6 SE 19 28 10 15 1023.2 - 0.8
15/03:00pm 16.4 13.4 12.0 75 2.4 SE 19 28 10 15 1023.2 1023.2 0.8
15/02:30pm 16.2 13.7 12.4 78 2.1 SE 17 24 9 13 1023.3 - 0.8
15/02:17pm 15.7 14.2 13.0 84 1.5 SE 13 22 7 12 1023.2 - 0.8
15/02:00pm 15.4 13.5 13.1 86 1.3 ESE 15 20 8 11 1023.4 - 0.8
15/01:57pm 15.6 13.7 13.1 85 1.4 ESE 15 24 8 13 1023.4 - 0.8
15/01:30pm 15.4 13.6 13.2 87 1.2 SE 15 22 8 12 1023.7 - 0.8
15/01:15pm 15.2 13.4 13.4 89 1.0 ESE 15 20 8 11 1023.8 - 0.8
15/01:00pm 15.3 14.4 13.7 90 0.9 ESE 11 17 6 9 1024.0 - 0.8
15/12:30pm 15.3 14.8 13.8 91 0.8 E 9 15 5 8 1024.6 - 0.8
15/12:05pm 15.2 14.2 13.4 89 1.0 E 11 19 6 10 1024.8 - 0.8
15/12:00pm 15.5 14.6 13.7 89 1.0 E 11 19 6 10 1024.9 1024.9 0.8
15/11:47am 14.8 13.1 12.5 86 1.3 E 13 22 7 12 1024.9 - 0.6
15/11:39am 15.3 13.2 12.4 83 1.6 ESE 15 20 8 11 1025.0 - 0.0
15/11:30am 15.7 14.0 12.3 80 1.9 SE 13 20 7 11 1025.1 - 0.0
15/11:00am 16.7 14.5 13.4 81 1.9 E 17 24 9 13 1025.2 - 0.0
15/10:30am 15.7 14.1 13.9 89 1.0 SE 15 20 8 11 1025.4 - 0.0
15/10:00am 14.9 13.4 14.1 95 0.5 ESE 15 22 8 12 1025.4 - 0.0
15/09:30am 14.3 12.7 14.0 98 0.2 ESE 15 22 8 12 1025.4 - 0.0
15/09:00am 14.8 13.8 14.6 99 0.1 ESE 13 20 7 11 1025.3 1025.4 0.2
15/08:30am 14.1 13.3 13.9 99 0.1 ESE 11 20 6 11 1025.2 - 0.2
15/08:00am 13.4 11.9 13.2 99 0.1 ESE 13 17 7 9 1025.0 - 0.2
15/07:30am 13.4 11.9 13.2 99 0.1 ESE 13 17 7 9 1024.8 - 0.2
15/07:25am 13.3 11.8 13.1 99 0.1 ESE 13 17 7 9 1024.8 - 0.2
15/07:03am 13.2 12.1 13.0 99 0.1 SE 11 15 6 8 1024.6 - 0.2
15/07:00am 13.1 12.3 12.9 99 0.1 SE 9 15 5 8 1024.6 - 0.2
15/06:30am 12.2 11.1 12.0 99 0.1 SE 9 11 5 6 1024.6 - 0.2
15/06:00am 12.2 11.5 12.0 99 0.1 SSE 7 11 4 6 1024.5 1024.5 0.2
15/05:39am 12.5 11.9 12.3 99 0.1 S 7 9 4 5 1024.5 - 0.2
15/05:30am 12.3 11.6 12.1 99 0.1 S 7 9 4 5 1024.5 - 0.2
15/05:06am 12.3 11.8 12.1 99 0.1 S 6 7 3 4 1024.4 - 0.2
15/05:00am 12.4 11.9 12.2 99 0.1 S 6 7 3 4 1024.3 - 0.2
15/04:30am 11.1 11.4 10.9 99 0.1 CALM 0 0 0 0 1024.2 - 0.2
15/04:00am 11.5 11.2 11.3 99 0.1 SSE 4 6 2 3 1024.2 - 0.2
15/03:31am 12.0 11.2 11.8 99 0.1 SSE 7 9 4 5 1024.3 - 0.2
15/03:30am 12.0 11.4 11.8 99 0.1 SSE 6 7 3 4 1024.3 - 0.2
15/03:09am 12.1 12.7 11.9 99 0.1 CALM 0 6 0 3 1024.3 - 0.2
15/03:00am 11.7 12.2 11.5 99 0.1 CALM 0 0 0 0 1024.4 1024.4 0.2
15/02:38am 11.7 11.4 11.5 99 0.1 S 4 7 2 4 1024.5 - 0.2
15/02:30am 12.1 11.6 11.9 99 0.1 S 6 7 3 4 1024.6 - 0.2
15/02:25am 12.2 11.7 12.0 99 0.1 S 6 7 3 4 1024.6 - 0.2
15/02:18am 12.0 11.4 11.8 99 0.1 SSE 6 7 3 4 1024.6 - 0.2
15/02:00am 11.7 12.2 11.5 99 0.1 CALM 0 7 0 4 1024.6 - 0.2
15/01:40am 10.8 10.6 10.5 98 0.2 SSE 2 6 1 3 1024.6 - 0.0
15/01:36am 10.3 9.6 10.0 98 0.2 SSE 4 7 2 4 1024.6 - 0.0
15/01:30am 10.6 10.0 10.3 98 0.2 SSE 4 7 2 4 1024.6 - 0.0
15/01:19am 9.7 9.2 9.2 97 0.2 SSE 2 7 1 4 1024.6 - 0.0
15/01:00am 9.8 8.3 9.3 97 0.2 SSE 7 9 4 5 1024.6 - 0.0
15/12:58am 9.8 8.3 9.3 97 0.2 SSE 7 9 4 5 1024.6 - 0.0
15/12:30am 9.9 9.8 9.3 96 0.3 CALM 0 0 0 0 1024.6 - 0.0
15/12:00am 10.3 10.3 9.7 96 0.3 CALM 0 0 0 0 1024.7 1024.7 0.0
 
Date/Time
EST
Temp
°C
App
Temp
°C
Dew
Point
Rel
Hum
%
Delta-T
°C
Wind Press
QNH
hPa
Press
MSL
hPa
Rain
since 9 am
mm
Dir
 
Spd
km/h
Gust
km/h
Spd
kts
Gust
kts
14/11:39pm 9.9 9.7 9.1 95 0.4 CALM 0 6 0 3 1024.8 - 0.0
14/11:30pm 9.7 8.7 8.9 95 0.4 S 4 7 2 4 1024.8 - 0.0
14/11:25pm 10.1 8.8 9.3 95 0.4 S 6 7 3 4 1024.8 - 0.0
14/11:00pm 10.1 9.6 9.2 94 0.4 SE 2 6 1 3 1025.0 - 0.0
14/10:30pm 10.2 10.1 9.3 94 0.4 CALM 0 0 0 0 1025.2 - 0.0
14/10:08pm 10.5 10.4 9.4 93 0.6 CALM 0 0 0 0 1025.2 - 0.0
14/10:07pm 10.5 10.4 9.3 92 0.6 CALM 0 0 0 0 1025.3 - 0.0
14/10:00pm 10.6 10.5 9.4 92 0.6 CALM 0 0 0 0 1025.3 - 0.0

Other Formats:

Comma delimited format used in spreadsheet applications
http://www.bom.gov.au/fwo/IDV60801/IDV60801.94828.axf

JavaScript Object Notation format (JSON) in row-major order
http://www.bom.gov.au/fwo/IDV60801/IDV60801.94828.json